createdAt,value
2019-06-15T00:00:57.369Z,14.60
2019-06-15T00:03:25.903Z,14.60
2019-06-15T00:05:54.457Z,14.60
2019-06-15T00:08:22.949Z,14.60
2019-06-15T00:10:51.405Z,14.60
2019-06-15T00:13:19.943Z,14.60
2019-06-15T00:15:48.415Z,14.50
2019-06-15T00:18:16.905Z,14.50
2019-06-15T00:20:45.439Z,14.50
2019-06-15T00:23:13.936Z,14.50
2019-06-15T00:25:42.399Z,14.40
2019-06-15T00:28:10.969Z,14.40
2019-06-15T00:30:39.516Z,14.40
2019-06-15T00:33:08.179Z,14.40
2019-06-15T00:35:36.639Z,14.30
2019-06-15T00:38:05.438Z,14.30
2019-06-15T00:40:34.013Z,14.30
2019-06-15T00:43:02.547Z,14.30
2019-06-15T00:45:31.072Z,14.30
2019-06-15T00:48:00.218Z,14.30
2019-06-15T00:50:28.754Z,14.30
2019-06-15T00:52:57.247Z,14.30
2019-06-15T00:55:25.790Z,14.30
2019-06-15T00:57:55.820Z,14.30
2019-06-15T01:00:24.423Z,14.30
2019-06-15T01:02:52.993Z,14.20
2019-06-15T01:05:21.533Z,14.20
2019-06-15T01:07:50.100Z,14.20
2019-06-15T01:10:18.905Z,14.30
2019-06-15T01:12:47.438Z,14.30
2019-06-15T01:15:16.269Z,14.30
2019-06-15T01:17:44.949Z,14.30
2019-06-15T01:20:15.427Z,14.30
2019-06-15T01:22:45.587Z,14.30
2019-06-15T01:25:14.498Z,14.40
2019-06-15T01:27:43.047Z,14.40
2019-06-15T01:30:12.971Z,14.40
2019-06-15T01:32:41.524Z,14.40
2019-06-15T01:35:10.251Z,14.30
2019-06-15T01:37:38.868Z,14.40
2019-06-15T01:40:08.605Z,14.30
2019-06-15T01:42:37.283Z,14.40
2019-06-15T01:45:06.594Z,14.40
2019-06-15T01:47:41.213Z,14.30
2019-06-15T01:50:10.040Z,14.30
2019-06-15T01:52:38.516Z,14.30
2019-06-15T01:55:20.047Z,14.20
2019-06-15T01:57:37.619Z,14.20
2019-06-15T02:00:07.825Z,14.20
2019-06-15T02:02:36.364Z,14.20
2019-06-15T02:05:06.990Z,14.10
2019-06-15T02:07:35.979Z,14.10
2019-06-15T02:10:07.373Z,14.10
2019-06-15T02:12:35.923Z,14.10
2019-06-15T02:15:06.061Z,14.10
2019-06-15T02:17:34.596Z,14.10
2019-06-15T02:20:04.141Z,14.00
2019-06-15T02:22:32.686Z,14.00
2019-06-15T02:25:01.253Z,14.00
2019-06-15T02:27:29.795Z,13.90
2019-06-15T02:29:58.530Z,13.90
2019-06-15T02:32:27.011Z,13.90
2019-06-15T02:34:55.585Z,13.90
2019-06-15T02:37:24.121Z,13.80
2019-06-15T02:40:06.856Z,13.80
2019-06-15T02:42:35.317Z,13.80
2019-06-15T02:45:04.851Z,13.70
2019-06-15T02:47:33.452Z,13.70
2019-06-15T02:50:02.245Z,13.70
2019-06-15T02:52:30.814Z,13.70
2019-06-15T02:54:59.367Z,13.60
2019-06-15T02:57:27.840Z,13.60
2019-06-15T02:59:56.328Z,13.70
2019-06-15T03:02:24.937Z,13.70
2019-06-15T03:04:53.475Z,13.70
2019-06-15T03:07:21.976Z,13.70
2019-06-15T03:09:50.526Z,13.80
2019-06-15T03:12:19.542Z,13.90
2019-06-15T03:14:49.314Z,14.00
2019-06-15T03:17:17.951Z,14.00
2019-06-15T03:19:46.449Z,14.00
2019-06-15T03:22:16.032Z,14.00
2019-06-15T03:24:44.577Z,14.00
2019-06-15T03:27:13.260Z,14.00
2019-06-15T03:29:41.734Z,14.00
2019-06-15T03:32:10.302Z,14.00
2019-06-15T03:34:38.848Z,14.00
2019-06-15T03:37:07.337Z,13.90
2019-06-15T03:39:35.814Z,14.00
2019-06-15T03:42:04.520Z,14.00
2019-06-15T03:44:32.997Z,14.00
2019-06-15T03:47:01.571Z,14.10
2019-06-15T03:49:30.109Z,14.10
2019-06-15T03:51:58.756Z,14.10
2019-06-15T03:54:27.236Z,14.10
2019-06-15T03:56:55.745Z,14.10
2019-06-15T03:59:24.289Z,14.20
2019-06-15T04:01:53.484Z,14.20
2019-06-15T04:04:21.962Z,14.30
2019-06-15T04:06:50.562Z,14.40
2019-06-15T04:09:19.107Z,14.50
2019-06-15T04:11:47.687Z,14.50
2019-06-15T04:14:16.231Z,14.60
2019-06-15T04:16:45.909Z,14.60
2019-06-15T04:19:14.384Z,14.60
2019-06-15T04:21:43.545Z,14.70
2019-06-15T04:24:12.083Z,14.70
2019-06-15T04:26:40.584Z,14.80
2019-06-15T04:29:09.054Z,14.90
2019-06-15T04:31:39.997Z,14.90
2019-06-15T04:34:07.736Z,14.90
2019-06-15T04:36:36.243Z,15.00
2019-06-15T04:39:06.451Z,15.00
2019-06-15T04:41:35.084Z,15.10
2019-06-15T04:44:03.629Z,15.10
2019-06-15T04:46:32.238Z,15.10
2019-06-15T04:49:00.806Z,15.20
2019-06-15T04:51:29.325Z,15.20
2019-06-15T04:53:57.908Z,15.30
2019-06-15T04:56:26.464Z,15.30
2019-06-15T04:58:54.969Z,15.30
2019-06-15T05:01:23.516Z,15.40
2019-06-15T05:03:52.029Z,15.60
2019-06-15T05:06:20.737Z,15.60
2019-06-15T05:08:49.229Z,15.70
2019-06-15T05:11:17.706Z,15.80
2019-06-15T05:13:46.268Z,15.80
2019-06-15T05:16:14.812Z,15.90
2019-06-15T05:18:43.312Z,16.00
2019-06-15T05:21:11.856Z,16.10
2019-06-15T05:23:40.366Z,16.30
2019-06-15T05:26:08.905Z,16.30
2019-06-15T05:28:37.956Z,16.30
2019-06-15T05:31:06.532Z,16.30
2019-06-15T05:33:35.028Z,16.20
2019-06-15T05:36:03.616Z,16.30
2019-06-15T05:38:32.171Z,16.40
2019-06-15T05:41:03.108Z,16.50
2019-06-15T05:43:31.672Z,16.50
2019-06-15T05:46:00.152Z,16.50
2019-06-15T05:48:28.644Z,16.60
2019-06-15T05:50:58.681Z,16.60
2019-06-15T05:53:27.447Z,16.70
2019-06-15T05:55:55.913Z,16.70
2019-06-15T05:58:24.405Z,16.60
2019-06-15T06:00:52.952Z,16.80
2019-06-15T06:03:21.446Z,16.80
2019-06-15T06:05:49.993Z,16.80
2019-06-15T06:08:18.604Z,16.90
2019-06-15T06:10:47.188Z,17.00
2019-06-15T06:13:15.723Z,17.20
2019-06-15T06:15:44.310Z,17.10
2019-06-15T06:18:12.857Z,17.10
2019-06-15T06:20:42.716Z,17.10
2019-06-15T06:23:11.245Z,17.00
2019-06-15T06:25:39.736Z,17.00
2019-06-15T06:28:08.278Z,17.00
2019-06-15T06:30:36.849Z,17.00
2019-06-15T06:33:05.396Z,16.90
2019-06-15T06:35:34.268Z,16.90
2019-06-15T06:38:02.872Z,17.00
2019-06-15T06:40:31.438Z,17.00
2019-06-15T06:42:59.899Z,17.00
2019-06-15T06:45:28.542Z,17.00
2019-06-15T06:47:57.004Z,17.10
2019-06-15T06:50:25.631Z,17.30
2019-06-15T06:52:54.174Z,17.60
2019-06-15T06:55:22.663Z,17.60
2019-06-15T06:57:53.483Z,17.70
2019-06-15T07:00:22.474Z,17.60
2019-06-15T07:02:51.080Z,17.70
2019-06-15T07:05:19.660Z,17.70
2019-06-15T07:07:48.193Z,17.50
2019-06-15T07:10:16.755Z,17.50
2019-06-15T07:12:45.297Z,17.70
2019-06-15T07:15:13.958Z,17.70
2019-06-15T07:17:42.495Z,17.80
2019-06-15T07:20:11.419Z,18.00
2019-06-15T07:22:39.971Z,18.10
2019-06-15T07:25:09.969Z,18.20
2019-06-15T07:27:38.504Z,18.20
2019-06-15T07:30:10.396Z,18.10
2019-06-15T07:32:38.608Z,17.90
2019-06-15T07:35:08.097Z,17.90
2019-06-15T07:37:36.631Z,18.00
2019-06-15T07:40:06.905Z,18.10
2019-06-15T07:42:38.944Z,18.10
2019-06-15T07:45:09.132Z,18.30
2019-06-15T07:47:37.668Z,18.50
2019-06-15T07:50:09.045Z,18.60
2019-06-15T07:52:37.593Z,18.70
2019-06-15T07:55:08.361Z,18.60
2019-06-15T07:57:36.831Z,18.50
2019-06-15T08:00:08.700Z,18.70
2019-06-15T08:02:37.168Z,18.90
2019-06-15T08:05:09.336Z,18.90
2019-06-15T08:07:37.820Z,18.90
2019-06-15T08:10:07.629Z,19.10
2019-06-15T08:12:36.196Z,19.40
2019-06-15T08:15:06.104Z,19.30
2019-06-15T08:17:34.666Z,19.10
2019-06-15T08:20:04.814Z,19.00
2019-06-15T08:22:33.377Z,19.10
2019-06-15T08:25:01.918Z,18.90
2019-06-15T08:27:30.472Z,18.80
2019-06-15T08:29:58.971Z,18.60
2019-06-15T08:32:27.540Z,18.70
2019-06-15T08:34:56.148Z,18.50
2019-06-15T08:37:24.662Z,18.50
2019-06-15T08:40:08.744Z,18.60
2019-06-15T08:42:37.373Z,18.50
2019-06-15T08:45:07.578Z,18.60
2019-06-15T08:47:36.701Z,18.70
2019-06-15T08:50:06.056Z,18.80
2019-06-15T08:52:34.556Z,18.70
2019-06-15T08:55:05.049Z,19.00
2019-06-15T08:57:34.327Z,19.30
2019-06-15T09:00:04.583Z,19.40
2019-06-15T09:02:33.703Z,19.70
2019-06-15T09:05:02.378Z,19.50
2019-06-15T09:07:30.920Z,19.30
2019-06-15T09:10:00.336Z,18.90
2019-06-15T09:12:28.866Z,18.70
2019-06-15T09:15:08.022Z,18.60
2019-06-15T09:17:37.097Z,18.40
2019-06-15T09:20:10.456Z,18.30
2019-06-15T09:22:45.033Z,18.30
2019-06-15T09:25:14.229Z,18.50
2019-06-15T09:28:01.079Z,18.50
2019-06-15T09:30:37.458Z,18.70
2019-06-15T09:33:06.163Z,18.60
2019-06-15T09:35:35.251Z,18.70
2019-06-15T09:38:04.331Z,18.70
2019-06-15T09:40:33.534Z,19.10
2019-06-15T09:43:02.049Z,19.30
2019-06-15T09:45:32.902Z,19.20
2019-06-15T09:48:00.950Z,19.10
2019-06-15T09:50:29.476Z,19.10
2019-06-15T09:52:57.969Z,18.90
2019-06-15T09:55:26.500Z,19.00
2019-06-15T09:57:55.005Z,19.50
2019-06-15T10:00:23.538Z,20.10
2019-06-15T10:02:52.029Z,20.50
2019-06-15T10:05:20.638Z,20.50
2019-06-15T10:07:49.141Z,20.90
2019-06-15T10:10:17.799Z,20.80
2019-06-15T10:12:46.285Z,20.80
2019-06-15T10:15:16.659Z,21.30
2019-06-15T10:17:45.291Z,22.10
2019-06-15T10:20:14.062Z,22.20
2019-06-15T10:22:42.573Z,22.10
2019-06-15T10:25:11.368Z,22.00
2019-06-15T10:27:39.899Z,22.30
2019-06-15T10:30:09.201Z,21.70
2019-06-15T10:32:37.702Z,21.00
2019-06-15T10:35:07.380Z,20.80
2019-06-15T10:37:35.844Z,21.10
2019-06-15T10:40:08.864Z,21.30
2019-06-15T10:42:37.393Z,22.30
2019-06-15T10:45:07.916Z,23.30
2019-06-15T10:47:36.377Z,23.00
2019-06-15T10:50:08.171Z,22.50
2019-06-15T10:52:36.725Z,22.40
2019-06-15T10:55:07.009Z,21.50
2019-06-15T10:57:35.726Z,21.40
2019-06-15T11:00:09.436Z,22.30
2019-06-15T11:02:37.940Z,22.10
2019-06-15T11:05:08.141Z,21.60
2019-06-15T11:07:36.792Z,21.90
2019-06-15T11:10:08.552Z,22.20
2019-06-15T11:12:45.868Z,22.40
2019-06-15T11:15:10.782Z,22.30
2019-06-15T11:17:39.653Z,22.30
2019-06-15T11:20:08.602Z,22.80
2019-06-15T11:22:39.066Z,23.10
2019-06-15T11:25:07.767Z,23.40
2019-06-15T11:27:36.303Z,22.80
2019-06-15T11:30:13.779Z,22.80
2019-06-15T11:32:37.932Z,24.10
2019-06-15T11:35:08.401Z,24.50
2019-06-15T11:37:36.947Z,24.20
2019-06-15T11:40:07.229Z,23.60
2019-06-15T11:42:35.700Z,23.80
2019-06-15T11:45:06.688Z,23.90
2019-06-15T11:47:35.704Z,24.40
2019-06-15T11:50:07.924Z,24.20
2019-06-15T11:52:36.469Z,24.00
2019-06-15T11:55:14.382Z,24.40
2019-06-15T11:57:43.393Z,23.80
2019-06-15T12:00:12.297Z,23.90
2019-06-15T12:02:40.977Z,24.10
2019-06-15T12:05:09.616Z,23.80
2019-06-15T12:07:38.106Z,23.60
2019-06-15T12:10:07.045Z,23.30
2019-06-15T12:12:35.580Z,23.70
2019-06-15T12:15:06.212Z,24.20
2019-06-15T12:17:34.745Z,24.10
2019-06-15T12:20:04.786Z,24.20
2019-06-15T12:22:33.355Z,24.10
2019-06-15T12:25:01.922Z,24.10
2019-06-15T12:27:30.453Z,24.20
2019-06-15T12:29:58.947Z,24.70
2019-06-15T12:32:27.486Z,23.60
2019-06-15T12:35:07.017Z,23.40
2019-06-15T12:37:35.604Z,24.10
2019-06-15T12:40:06.028Z,25.10
2019-06-15T12:42:34.971Z,24.50
2019-06-15T12:45:03.949Z,24.20
2019-06-15T12:47:32.417Z,23.40
2019-06-15T12:50:00.897Z,23.70
2019-06-15T12:52:29.391Z,24.10
2019-06-15T12:54:57.929Z,23.60
2019-06-15T12:57:26.428Z,23.60
2019-06-15T12:59:54.963Z,23.90
2019-06-15T13:02:23.468Z,24.00
2019-06-15T13:04:52.013Z,24.20
2019-06-15T13:07:20.569Z,24.50
2019-06-15T13:09:49.032Z,24.90
2019-06-15T13:12:17.543Z,25.70
2019-06-15T13:14:46.056Z,25.00
2019-06-15T13:17:14.626Z,24.60
2019-06-15T13:19:43.097Z,24.50
2019-06-15T13:22:11.586Z,25.40
2019-06-15T13:24:40.125Z,24.80
2019-06-15T13:27:08.684Z,25.50
2019-06-15T13:29:37.150Z,25.70
2019-06-15T13:32:06.456Z,25.70
2019-06-15T13:34:34.956Z,25.30
2019-06-15T13:37:03.444Z,25.40
2019-06-15T13:39:31.906Z,25.10
2019-06-15T13:42:00.407Z,24.40
2019-06-15T13:44:28.946Z,25.20
2019-06-15T13:46:58.002Z,25.40
2019-06-15T13:49:26.565Z,26.20
2019-06-15T13:51:55.128Z,26.70
2019-06-15T13:54:23.589Z,26.00
2019-06-15T13:56:52.210Z,25.50
2019-06-15T13:59:20.764Z,25.70
2019-06-15T14:01:49.252Z,25.10
2019-06-15T14:04:17.789Z,25.00
2019-06-15T14:06:46.281Z,25.40
2019-06-15T14:09:14.828Z,25.20
2019-06-15T14:11:43.330Z,25.30
2019-06-15T14:14:11.861Z,26.10
2019-06-15T14:16:40.349Z,25.30
2019-06-15T14:19:08.845Z,25.40
2019-06-15T14:21:37.321Z,24.70
2019-06-15T14:24:05.896Z,25.20
2019-06-15T14:26:34.439Z,25.90
2019-06-15T14:29:03.107Z,26.10
2019-06-15T14:31:31.609Z,26.90
2019-06-15T14:34:00.182Z,25.90
2019-06-15T14:36:28.784Z,25.60
2019-06-15T14:38:57.284Z,26.30
2019-06-15T14:41:25.835Z,27.40
2019-06-15T14:43:54.328Z,27.90
2019-06-15T14:46:31.944Z,27.30
2019-06-15T14:49:00.434Z,26.10
2019-06-15T14:51:29.023Z,28.20
2019-06-15T14:53:59.116Z,29.40
2019-06-15T14:56:27.896Z,29.60
2019-06-15T14:58:56.466Z,31.40
2019-06-15T15:01:26.163Z,31.10
2019-06-15T15:03:57.065Z,30.00
2019-06-15T15:06:26.022Z,29.50
2019-06-15T15:08:56.234Z,28.00
2019-06-15T15:11:26.494Z,26.10
2019-06-15T15:13:56.204Z,26.10
2019-06-15T15:16:25.110Z,26.90
2019-06-15T15:18:53.664Z,28.10
2019-06-15T15:21:22.300Z,28.30
2019-06-15T15:23:50.864Z,28.90
2019-06-15T15:26:19.328Z,27.80
2019-06-15T15:28:47.976Z,29.30
2019-06-15T15:31:17.203Z,30.40
2019-06-15T15:33:47.739Z,28.00
2019-06-15T15:36:17.007Z,27.70
2019-06-15T15:38:46.941Z,29.10
2019-06-15T15:41:17.145Z,30.50
2019-06-15T15:43:46.387Z,30.60
2019-06-15T15:46:16.580Z,30.70
2019-06-15T15:48:46.914Z,28.50
2019-06-15T15:51:17.231Z,26.30
2019-06-15T15:53:46.725Z,25.10
2019-06-15T15:56:17.141Z,24.70
2019-06-15T15:58:47.202Z,23.70
2019-06-15T16:01:17.136Z,23.60
2019-06-15T16:03:47.440Z,23.50
2019-06-15T16:06:16.058Z,23.40
2019-06-15T16:08:47.144Z,23.30
2019-06-15T16:11:16.342Z,23.30
2019-06-15T16:13:46.181Z,23.30
2019-06-15T16:16:16.394Z,23.50
2019-06-15T16:18:47.017Z,24.30
2019-06-15T16:21:16.863Z,25.50
2019-06-15T16:23:46.682Z,25.50
2019-06-15T16:26:16.892Z,24.80
2019-06-15T16:28:46.101Z,24.10
2019-06-15T16:31:17.721Z,23.80
2019-06-15T16:33:46.613Z,23.60
2019-06-15T16:36:15.323Z,23.40
2019-06-15T16:38:46.728Z,23.20
2019-06-15T16:41:14.208Z,23.20
2019-06-15T16:43:42.697Z,22.90
2019-06-15T16:46:11.269Z,22.80
2019-06-15T16:48:39.804Z,22.80
2019-06-15T16:51:08.304Z,22.70
2019-06-15T16:53:37.518Z,22.70
2019-06-15T16:56:06.247Z,22.70
2019-06-15T16:58:36.329Z,22.70
2019-06-15T17:01:06.495Z,22.40
2019-06-15T17:03:36.646Z,22.40
2019-06-15T17:06:06.943Z,22.40
2019-06-15T17:08:36.859Z,22.30
2019-06-15T17:11:06.761Z,22.30
2019-06-15T17:13:37.048Z,22.30
2019-06-15T17:16:06.221Z,22.30
2019-06-15T17:18:36.436Z,22.20
2019-06-15T17:21:07.072Z,22.10
2019-06-15T17:23:35.471Z,21.90
2019-06-15T17:26:06.286Z,21.90
2019-06-15T17:28:36.739Z,21.80
2019-06-15T17:31:06.038Z,21.90
2019-06-15T17:33:38.224Z,21.90
2019-06-15T17:36:06.945Z,21.90
2019-06-15T17:38:36.883Z,21.90
2019-06-15T17:41:05.848Z,22.00
2019-06-15T17:43:36.462Z,21.90
2019-06-15T17:46:07.121Z,21.90
2019-06-15T17:48:36.943Z,21.80
2019-06-15T17:51:06.592Z,21.90
2019-06-15T17:53:36.712Z,21.80
2019-06-15T17:56:07.343Z,21.80
2019-06-15T17:58:37.068Z,21.70
2019-06-15T18:01:06.464Z,21.70
2019-06-15T18:03:49.958Z,21.70
2019-06-15T18:06:05.572Z,21.70
2019-06-15T18:08:34.102Z,21.70
2019-06-15T18:11:02.729Z,21.60
2019-06-15T18:13:31.780Z,21.60
2019-06-15T18:16:00.316Z,21.60
2019-06-15T18:18:28.853Z,21.60
2019-06-15T18:20:57.426Z,21.50
2019-06-15T18:23:25.961Z,21.40
2019-06-15T18:25:56.138Z,21.30
2019-06-15T18:28:26.464Z,21.20
2019-06-15T18:30:55.210Z,21.10
2019-06-15T18:33:23.783Z,21.10
2019-06-15T18:35:52.316Z,21.00
2019-06-15T18:38:20.875Z,20.90
2019-06-15T18:40:49.336Z,20.80
2019-06-15T18:43:17.829Z,20.70
2019-06-15T18:45:47.255Z,20.70
2019-06-15T18:48:16.794Z,20.60
2019-06-15T18:50:45.788Z,20.50
2019-06-15T18:53:14.818Z,20.40
2019-06-15T18:55:43.400Z,20.30
2019-06-15T18:58:11.969Z,20.20
2019-06-15T19:00:40.450Z,20.10
2019-06-15T19:03:09.082Z,19.90
2019-06-15T19:05:37.694Z,19.90
2019-06-15T19:08:06.799Z,19.70
2019-06-15T19:10:36.982Z,19.60
2019-06-15T19:13:07.384Z,19.50
2019-06-15T19:15:37.482Z,19.40
2019-06-15T19:18:07.342Z,19.30
2019-06-15T19:20:37.151Z,19.30
2019-06-15T19:23:07.117Z,19.20
2019-06-15T19:25:36.613Z,19.10
2019-06-15T19:28:05.665Z,19.00
2019-06-15T19:30:37.069Z,18.90
2019-06-15T19:33:04.887Z,18.80
2019-06-15T19:35:36.050Z,18.70
2019-06-15T19:38:06.364Z,18.60
2019-06-15T19:40:37.572Z,18.50
2019-06-15T19:43:06.622Z,18.50
2019-06-15T19:45:37.038Z,18.50
2019-06-15T19:48:06.666Z,18.40
2019-06-15T19:50:36.208Z,18.30
2019-06-15T19:53:07.031Z,18.20
2019-06-15T19:55:36.279Z,18.20
2019-06-15T19:58:07.129Z,18.10
2019-06-15T20:00:36.428Z,18.00
2019-06-15T20:03:06.972Z,17.90
2019-06-15T20:05:37.008Z,17.80
2019-06-15T20:08:07.079Z,17.80
2019-06-15T20:10:37.027Z,17.70
2019-06-15T20:13:07.282Z,17.60
2019-06-15T20:15:37.627Z,17.50
2019-06-15T20:18:07.004Z,17.50
2019-06-15T20:20:36.902Z,17.50
2019-06-15T20:23:07.325Z,17.50
2019-06-15T20:25:36.819Z,17.40
2019-06-15T20:28:07.201Z,17.40
2019-06-15T20:30:36.933Z,17.40
2019-06-15T20:33:07.797Z,17.30
2019-06-15T20:35:37.039Z,17.30
2019-06-15T20:38:05.581Z,17.30
2019-06-15T20:40:36.265Z,17.20
2019-06-15T20:43:04.475Z,17.20
2019-06-15T20:45:33.054Z,17.10
2019-06-15T20:48:01.589Z,17.00
2019-06-15T20:50:30.160Z,17.00
2019-06-15T20:52:58.701Z,16.90
2019-06-15T20:55:27.203Z,16.80
2019-06-15T20:57:56.842Z,16.80
2019-06-15T21:00:26.353Z,16.70
2019-06-15T21:02:56.258Z,16.70
2019-06-15T21:05:36.890Z,16.60
2019-06-15T21:07:57.383Z,16.60
2019-06-15T21:10:31.156Z,16.50
2019-06-15T21:12:59.624Z,16.40
2019-06-15T21:15:31.184Z,16.40
2019-06-15T21:17:59.653Z,16.40
2019-06-15T21:20:28.222Z,16.40
2019-06-15T21:22:57.217Z,16.40
2019-06-15T21:25:26.508Z,16.30
2019-06-15T21:27:56.834Z,16.20
2019-06-15T21:30:27.048Z,16.20
2019-06-15T21:32:55.990Z,16.10
2019-06-15T21:35:26.840Z,16.10
2019-06-15T21:37:57.186Z,16.10
2019-06-15T21:40:27.302Z,16.10
2019-06-15T21:42:56.267Z,16.10
2019-06-15T21:45:25.040Z,16.10
2019-06-15T21:47:55.875Z,16.20
2019-06-15T21:50:23.792Z,16.10
2019-06-15T21:52:52.328Z,16.10
2019-06-15T21:55:20.819Z,16.10
2019-06-15T21:57:49.383Z,16.10
2019-06-15T22:00:22.365Z,16.10
2019-06-15T22:02:50.832Z,16.10
2019-06-15T22:05:19.464Z,16.10
2019-06-15T22:07:47.932Z,16.10
2019-06-15T22:10:16.639Z,16.10
2019-06-15T22:12:45.116Z,16.10
2019-06-15T22:15:15.961Z,16.00
2019-06-15T22:17:44.006Z,15.90
2019-06-15T22:20:13.017Z,15.90
2019-06-15T22:22:41.630Z,16.00
2019-06-15T22:25:10.640Z,16.00
2019-06-15T22:27:39.110Z,15.90
2019-06-15T22:30:08.809Z,15.90
2019-06-15T22:32:37.412Z,15.90
2019-06-15T22:35:07.345Z,15.90
2019-06-15T22:37:36.142Z,15.90
2019-06-15T22:40:09.296Z,15.90
2019-06-15T22:42:38.079Z,15.90
2019-06-15T22:45:07.117Z,15.90
2019-06-15T22:47:36.257Z,16.00
2019-06-15T22:50:08.800Z,16.00
2019-06-15T22:52:37.440Z,16.00
2019-06-15T22:55:07.729Z,16.00
2019-06-15T22:57:37.064Z,16.10
2019-06-15T23:00:08.010Z,16.00
2019-06-15T23:02:37.063Z,16.00
2019-06-15T23:05:06.653Z,16.10
2019-06-15T23:07:36.303Z,16.10
2019-06-15T23:10:08.559Z,16.10
2019-06-15T23:12:37.467Z,16.10
2019-06-15T23:15:07.741Z,16.10
2019-06-15T23:17:37.410Z,16.10
2019-06-15T23:20:07.728Z,16.10
2019-06-15T23:22:36.216Z,16.00
2019-06-15T23:25:06.157Z,16.00
2019-06-15T23:27:34.892Z,16.00
2019-06-15T23:30:08.488Z,16.00
2019-06-15T23:32:37.002Z,15.90
2019-06-15T23:35:07.739Z,16.00
2019-06-15T23:37:37.514Z,16.00
2019-06-15T23:40:22.933Z,16.10
2019-06-15T23:42:51.864Z,16.10
2019-06-15T23:45:21.069Z,16.10
2019-06-15T23:47:50.099Z,16.10
2019-06-15T23:50:19.780Z,16.20
2019-06-15T23:52:48.676Z,16.20
2019-06-15T23:55:17.776Z,16.20
2019-06-15T23:57:46.475Z,16.20
